createdAt,value
2022-11-29T00:01:15.107Z,101022.13
2022-11-29T00:03:41.951Z,101026.81
2022-11-29T00:06:10.237Z,101023.34
2022-11-29T00:08:37.220Z,101039.09
2022-11-29T00:11:08.334Z,101032.13
2022-11-29T00:13:35.084Z,101031.78
2022-11-29T00:16:14.917Z,101037.22
2022-11-29T00:18:41.640Z,101039.59
2022-11-29T00:21:08.803Z,101037.72
2022-11-29T00:23:36.005Z,101042.41
2022-11-29T00:26:03.534Z,101034.88
2022-11-29T00:28:30.120Z,101034.97
2022-11-29T00:30:56.817Z,101035.63
2022-11-29T00:33:23.447Z,101039.25
2022-11-29T00:35:49.959Z,101044.03
2022-11-29T00:38:16.627Z,101036.50
2022-11-29T00:40:43.120Z,101036.50
2022-11-29T00:43:09.675Z,101037.22
2022-11-29T00:45:36.220Z,101036.41
2022-11-29T00:48:02.691Z,101045.63
2022-11-29T00:50:29.278Z,101038.75
2022-11-29T00:52:55.817Z,101038.34
2022-11-29T00:55:22.535Z,101037.94
2022-11-29T00:57:49.090Z,101040.25
2022-11-29T01:00:15.998Z,101037.31
2022-11-29T01:02:42.600Z,101028.63
2022-11-29T01:05:09.475Z,101037.72
2022-11-29T01:07:36.031Z,101033.25
2022-11-29T01:10:02.836Z,101030.03
2022-11-29T01:12:29.513Z,101036.56
2022-11-29T01:14:56.228Z,101038.59
2022-11-29T01:17:22.885Z,101036.03
2022-11-29T01:19:51.015Z,101041.16
2022-11-29T01:22:18.073Z,101030.00
2022-11-29T01:24:45.009Z,101038.25
2022-11-29T01:27:11.766Z,101035.09
2022-11-29T01:29:38.862Z,101044.75
2022-11-29T01:32:05.404Z,101042.78
2022-11-29T01:34:31.913Z,101038.19
2022-11-29T01:36:58.410Z,101041.69
2022-11-29T01:39:25.213Z,101043.69
2022-11-29T01:41:51.882Z,101038.91
2022-11-29T01:44:18.338Z,101040.97
2022-11-29T01:46:45.983Z,101037.19
2022-11-29T01:49:15.173Z,101035.31
2022-11-29T01:51:44.991Z,101033.41
2022-11-29T01:54:12.644Z,101032.94
2022-11-29T01:56:39.858Z,101025.78
2022-11-29T01:59:08.627Z,101030.31
2022-11-29T02:01:35.772Z,101028.78
2022-11-29T02:04:02.411Z,101029.59
2022-11-29T02:06:30.332Z,101033.00
2022-11-29T02:08:57.334Z,101031.13
2022-11-29T02:11:59.409Z,101033.69
2022-11-29T02:14:31.948Z,101029.78
2022-11-29T02:17:04.722Z,101034.09
2022-11-29T02:19:54.039Z,101035.81
2022-11-29T02:22:41.791Z,101034.72
2022-11-29T02:25:34.605Z,101037.44
2022-11-29T02:28:19.973Z,101043.06
2022-11-29T02:30:58.794Z,101043.31
2022-11-29T02:33:28.453Z,101041.06
2022-11-29T02:36:00.411Z,101045.28
2022-11-29T02:38:40.168Z,101043.66
2022-11-29T02:41:22.645Z,101046.22
2022-11-29T02:43:52.243Z,101045.31
2022-11-29T02:46:21.826Z,101048.44
2022-11-29T02:48:51.228Z,101051.50
2022-11-29T02:51:22.852Z,101044.69
2022-11-29T02:53:52.483Z,101049.09
2022-11-29T02:56:29.923Z,101058.31
2022-11-29T02:58:56.333Z,101063.44
2022-11-29T03:01:32.268Z,101048.97
2022-11-29T03:04:11.221Z,101056.00
2022-11-29T03:06:37.700Z,101056.56
2022-11-29T03:09:10.418Z,101050.53
2022-11-29T03:11:39.727Z,101056.75
2022-11-29T03:14:31.106Z,101059.28
2022-11-29T03:17:07.480Z,101066.31
2022-11-29T03:19:33.986Z,101062.81
2022-11-29T03:22:00.577Z,101069.72
2022-11-29T03:24:35.847Z,101066.59
2022-11-29T03:27:06.600Z,101068.75
2022-11-29T03:29:36.359Z,101070.72
2022-11-29T03:32:23.029Z,101075.03
2022-11-29T03:35:13.308Z,101077.97
2022-11-29T03:37:50.509Z,101077.53
2022-11-29T03:40:19.752Z,101073.31
2022-11-29T03:42:51.900Z,101078.88
2022-11-29T03:45:28.036Z,101082.53
2022-11-29T03:47:58.161Z,101079.38
2022-11-29T03:50:28.107Z,101078.53
2022-11-29T03:53:03.218Z,101084.97
2022-11-29T03:55:33.466Z,101081.75
2022-11-29T03:58:18.296Z,101084.19
2022-11-29T04:00:47.845Z,101081.88
2022-11-29T04:03:27.827Z,101079.25
2022-11-29T04:06:03.459Z,101081.88
2022-11-29T04:08:45.264Z,101081.81
2022-11-29T04:11:20.994Z,101076.88
2022-11-29T04:13:47.429Z,101077.81
2022-11-29T04:16:46.283Z,101075.19
2022-11-29T04:19:27.924Z,101082.22
2022-11-29T04:22:12.650Z,101086.31
2022-11-29T04:24:50.418Z,101092.50
2022-11-29T04:27:26.124Z,101081.06
2022-11-29T04:30:02.145Z,101087.00
2022-11-29T04:32:31.518Z,101086.09
2022-11-29T04:35:14.867Z,101087.81
2022-11-29T04:37:41.325Z,101083.72
2022-11-29T04:40:31.101Z,101086.47
2022-11-29T04:43:20.788Z,101094.41
2022-11-29T04:46:06.764Z,101086.94
2022-11-29T04:48:43.424Z,101089.81
2022-11-29T04:51:21.776Z,101092.78
2022-11-29T04:53:52.249Z,101100.47
2022-11-29T04:56:38.003Z,101092.31
2022-11-29T04:59:23.525Z,101094.00
2022-11-29T05:02:10.175Z,101102.31
2022-11-29T05:04:42.813Z,101104.78
2022-11-29T05:07:19.407Z,101102.25
2022-11-29T05:10:04.814Z,101105.44
2022-11-29T05:12:37.771Z,101100.09
2022-11-29T05:15:16.973Z,101105.28
2022-11-29T05:17:49.591Z,101099.97
2022-11-29T05:20:24.405Z,101105.34
2022-11-29T05:22:58.639Z,101102.94
2022-11-29T05:25:27.899Z,101113.97
2022-11-29T05:27:54.304Z,101113.59
2022-11-29T05:30:22.695Z,101124.13
2022-11-29T05:32:58.508Z,101122.88
2022-11-29T05:35:31.071Z,101128.56
2022-11-29T05:38:10.256Z,101126.94
2022-11-29T05:40:55.690Z,101130.78
2022-11-29T05:43:22.131Z,101132.94
2022-11-29T05:45:51.661Z,101135.47
2022-11-29T05:48:37.311Z,101134.38
2022-11-29T05:51:15.815Z,101137.00
2022-11-29T05:53:55.066Z,101141.91
2022-11-29T05:56:40.295Z,101142.97
2022-11-29T05:59:13.319Z,101149.94
2022-11-29T06:01:55.439Z,101151.31
2022-11-29T06:04:29.799Z,101153.31
2022-11-29T06:07:15.013Z,101161.25
2022-11-29T06:09:47.067Z,101160.13
2022-11-29T06:12:21.274Z,101160.03
2022-11-29T06:14:57.387Z,101167.75
2022-11-29T06:17:39.078Z,101165.41
2022-11-29T06:20:09.156Z,101162.09
2022-11-29T06:22:47.676Z,101174.97
2022-11-29T06:25:33.301Z,101174.72
2022-11-29T06:28:18.468Z,101183.34
2022-11-29T06:30:45.137Z,101185.28
2022-11-29T06:33:21.483Z,101183.78
2022-11-29T06:35:50.803Z,101185.53
2022-11-29T06:38:25.972Z,101190.47
2022-11-29T06:41:00.125Z,101192.63
2022-11-29T06:43:28.361Z,101188.44
2022-11-29T06:46:01.225Z,101192.44
2022-11-29T06:48:30.981Z,101204.53
2022-11-29T06:51:07.389Z,101201.34
2022-11-29T06:53:34.539Z,101201.38
2022-11-29T06:56:08.304Z,101199.44
2022-11-29T06:58:36.342Z,101201.06
2022-11-29T07:01:08.661Z,101204.47
2022-11-29T07:03:54.099Z,101211.44
2022-11-29T07:06:20.900Z,101211.50
2022-11-29T07:08:49.249Z,101215.78
2022-11-29T07:11:16.548Z,101210.56
2022-11-29T07:13:43.285Z,101215.53
2022-11-29T07:16:26.783Z,101216.50
2022-11-29T07:19:11.948Z,101210.56
2022-11-29T07:21:38.446Z,101218.28
2022-11-29T07:24:20.407Z,101212.34
2022-11-29T07:26:59.431Z,101219.50
2022-11-29T07:29:35.486Z,101224.84
2022-11-29T07:32:25.819Z,101225.88
2022-11-29T07:34:58.653Z,101225.09
2022-11-29T07:37:28.190Z,101230.38
2022-11-29T07:40:13.529Z,101230.72
2022-11-29T07:42:52.439Z,101229.59
2022-11-29T07:45:28.323Z,101231.47
2022-11-29T07:47:54.974Z,101236.00
2022-11-29T07:50:21.946Z,101237.28
2022-11-29T07:52:48.484Z,101242.81
2022-11-29T07:55:18.956Z,101241.34
2022-11-29T07:57:45.919Z,101238.88
2022-11-29T08:00:12.812Z,101248.47
2022-11-29T08:02:39.950Z,101244.31
2022-11-29T08:05:07.317Z,101246.69
2022-11-29T08:07:34.643Z,101250.47
2022-11-29T08:10:01.408Z,101247.72
2022-11-29T08:12:27.948Z,101249.66
2022-11-29T08:14:54.757Z,101253.06
2022-11-29T08:17:21.349Z,101256.25
2022-11-29T08:19:47.876Z,101258.34
2022-11-29T08:22:14.512Z,101264.16
2022-11-29T08:24:41.306Z,101270.19
2022-11-29T08:27:07.842Z,101271.59
2022-11-29T08:29:34.528Z,101270.44
2022-11-29T08:32:01.428Z,101273.47
2022-11-29T08:34:28.148Z,101274.50
2022-11-29T08:36:56.051Z,101275.19
2022-11-29T08:39:22.964Z,101266.75
2022-11-29T08:41:49.760Z,101266.63
2022-11-29T08:44:16.344Z,101276.84
2022-11-29T08:47:01.579Z,101275.06
2022-11-29T08:49:28.152Z,101273.78
2022-11-29T08:52:14.558Z,101273.19
2022-11-29T08:54:41.093Z,101269.09
2022-11-29T08:57:38.738Z,101266.50
2022-11-29T08:59:54.172Z,101274.16
2022-11-29T09:02:20.771Z,101275.22
2022-11-29T09:04:47.609Z,101278.69
2022-11-29T09:07:14.273Z,101283.72
2022-11-29T09:09:40.951Z,101279.88
2022-11-29T09:12:08.856Z,101287.31
2022-11-29T09:14:35.381Z,101292.84
2022-11-29T09:17:02.361Z,101285.13
2022-11-29T09:19:28.830Z,101290.41
2022-11-29T09:21:55.592Z,101289.81
2022-11-29T09:24:22.103Z,101291.53
2022-11-29T09:26:48.713Z,101283.78
2022-11-29T09:29:18.472Z,101297.22
2022-11-29T09:31:48.172Z,101295.72
2022-11-29T09:34:22.195Z,101299.97
2022-11-29T09:36:51.853Z,101290.91
2022-11-29T09:39:18.477Z,101300.31
2022-11-29T09:42:05.946Z,101304.78
2022-11-29T09:44:32.422Z,101300.72
2022-11-29T09:47:17.755Z,101298.03
2022-11-29T09:50:08.866Z,101295.94
2022-11-29T09:52:56.721Z,101299.06
2022-11-29T09:56:00.452Z,101301.28
2022-11-29T09:58:38.317Z,101301.06
2022-11-29T10:01:07.936Z,101302.75
2022-11-29T10:03:38.409Z,101301.66
2022-11-29T10:06:18.952Z,101304.00
2022-11-29T10:08:53.992Z,101306.94
2022-11-29T10:11:41.602Z,101313.19
2022-11-29T10:14:18.087Z,101306.13
2022-11-29T10:16:51.191Z,101307.78
2022-11-29T10:19:35.224Z,101310.31
2022-11-29T10:22:20.342Z,101311.88
2022-11-29T10:24:49.362Z,101312.16
2022-11-29T10:27:19.568Z,101311.41
2022-11-29T10:29:50.406Z,101315.31
2022-11-29T10:32:19.865Z,101312.56
2022-11-29T10:34:47.130Z,101318.75
2022-11-29T10:37:16.194Z,101321.75
2022-11-29T10:39:48.802Z,101313.44
2022-11-29T10:42:44.575Z,101315.88
2022-11-29T10:45:16.866Z,101315.47
2022-11-29T10:47:45.799Z,101320.94
2022-11-29T10:50:29.056Z,101325.38
2022-11-29T10:53:00.148Z,101318.69
2022-11-29T10:55:27.929Z,101317.31
2022-11-29T10:58:11.999Z,101326.88
2022-11-29T11:00:51.667Z,101318.91
2022-11-29T11:03:25.828Z,101316.25
2022-11-29T11:06:04.282Z,101317.84
2022-11-29T11:08:31.355Z,101320.09
2022-11-29T11:11:01.715Z,101325.50
2022-11-29T11:13:31.005Z,101326.19
2022-11-29T11:16:16.321Z,101314.34
2022-11-29T11:18:43.175Z,101325.81
2022-11-29T11:21:11.974Z,101326.19
2022-11-29T11:23:58.457Z,101318.50
2022-11-29T11:26:26.050Z,101316.94
2022-11-29T11:28:58.587Z,101321.69
2022-11-29T11:31:30.686Z,101323.53
2022-11-29T11:33:57.671Z,101325.78
2022-11-29T11:36:28.282Z,101326.69
2022-11-29T11:38:56.351Z,101326.63
2022-11-29T11:41:49.028Z,101324.28
2022-11-29T11:44:49.762Z,101323.81
2022-11-29T11:47:24.545Z,101339.25
2022-11-29T11:50:00.306Z,101326.97
2022-11-29T11:52:29.034Z,101331.09
2022-11-29T11:54:58.690Z,101327.19
2022-11-29T11:57:26.036Z,101334.00
2022-11-29T11:59:53.723Z,101326.13
2022-11-29T12:02:36.089Z,101329.66
2022-11-29T12:05:05.323Z,101330.50
2022-11-29T12:08:06.633Z,101324.88
2022-11-29T12:10:32.064Z,101333.88
2022-11-29T12:12:59.540Z,101328.97
2022-11-29T12:15:28.029Z,101329.59
2022-11-29T12:17:57.566Z,101342.31
2022-11-29T12:20:39.963Z,101337.31
2022-11-29T12:23:12.754Z,101340.28
2022-11-29T12:25:54.280Z,101337.78
2022-11-29T12:28:46.662Z,101347.50
2022-11-29T12:31:31.999Z,101349.22
2022-11-29T12:33:58.597Z,101347.78
2022-11-29T12:36:41.660Z,101346.25
2022-11-29T12:39:39.226Z,101349.78
2022-11-29T12:42:26.170Z,101353.31
2022-11-29T12:45:20.883Z,101353.91
2022-11-29T12:48:16.532Z,101362.50
2022-11-29T12:51:10.360Z,101364.28
2022-11-29T12:54:03.015Z,101365.84
2022-11-29T12:56:41.759Z,101370.53
2022-11-29T12:59:17.473Z,101373.59
2022-11-29T13:02:05.816Z,101379.03
2022-11-29T13:05:00.995Z,101378.63
2022-11-29T13:07:46.762Z,101377.56
2022-11-29T13:10:37.741Z,101386.97
2022-11-29T13:13:04.280Z,101381.66
2022-11-29T13:16:00.276Z,101379.97
2022-11-29T13:18:50.168Z,101384.38
2022-11-29T13:21:34.746Z,101380.78
2022-11-29T13:24:11.443Z,101377.16
2022-11-29T13:26:44.064Z,101378.66
2022-11-29T13:29:21.039Z,101379.94
2022-11-29T13:31:52.771Z,101385.91
2022-11-29T13:38:10.403Z,101395.41
2022-11-29T13:40:38.932Z,101391.06
2022-11-29T13:43:20.945Z,101391.16
2022-11-29T13:46:00.804Z,101388.69
2022-11-29T13:48:53.604Z,101388.38
2022-11-29T13:51:30.826Z,101397.72
2022-11-29T13:54:00.675Z,101397.09
2022-11-29T13:56:49.281Z,101392.69
2022-11-29T13:59:23.768Z,101399.09
2022-11-29T14:01:52.967Z,101401.00
2022-11-29T14:04:24.268Z,101401.28
2022-11-29T14:07:01.486Z,101410.09
2022-11-29T14:09:31.199Z,101403.66
2022-11-29T14:12:02.485Z,101406.09
2022-11-29T14:14:40.342Z,101405.34
2022-11-29T14:17:26.746Z,101408.25
2022-11-29T14:20:13.258Z,101413.56
2022-11-29T14:22:59.656Z,101403.06
2022-11-29T14:26:00.432Z,101412.69
2022-11-29T14:28:17.277Z,101416.59
2022-11-29T14:30:44.072Z,101415.66
2022-11-29T14:33:13.648Z,101413.66
2022-11-29T14:35:46.591Z,101411.31
2022-11-29T14:38:19.413Z,101416.91
2022-11-29T14:40:53.120Z,101419.91
2022-11-29T14:43:39.736Z,101416.44
2022-11-29T14:46:15.620Z,101414.47
2022-11-29T14:48:58.652Z,101415.69
2022-11-29T14:51:26.768Z,101423.66
2022-11-29T14:54:13.161Z,101426.28
2022-11-29T14:56:43.550Z,101425.69
2022-11-29T14:59:30.980Z,101429.88
2022-11-29T15:02:02.472Z,101430.56
2022-11-29T15:04:33.789Z,101426.59
2022-11-29T15:07:01.670Z,101430.16
2022-11-29T15:09:36.031Z,101430.06
2022-11-29T15:12:08.078Z,101434.06
2022-11-29T15:14:34.677Z,101446.56
2022-11-29T15:17:05.758Z,101440.59
2022-11-29T15:19:54.327Z,101444.06
2022-11-29T15:22:22.445Z,101446.53
2022-11-29T15:24:49.878Z,101447.69
2022-11-29T15:27:18.236Z,101445.78
2022-11-29T15:29:48.671Z,101445.81
2022-11-29T15:32:35.516Z,101446.78
2022-11-29T15:35:02.231Z,101457.09
2022-11-29T15:37:37.620Z,101467.56
2022-11-29T15:40:06.656Z,101462.63
2022-11-29T15:42:53.607Z,101464.38
2022-11-29T15:45:23.544Z,101462.44
2022-11-29T15:47:50.538Z,101469.44
2022-11-29T15:50:26.074Z,101470.94
2022-11-29T15:53:00.562Z,101465.06
2022-11-29T15:55:30.793Z,101475.50
2022-11-29T15:57:58.275Z,101471.19
2022-11-29T16:00:28.108Z,101473.63
2022-11-29T16:03:02.181Z,101485.00
2022-11-29T16:05:33.100Z,101485.00
2022-11-29T16:08:15.134Z,101487.69
2022-11-29T16:10:56.211Z,101486.97
2022-11-29T16:13:26.182Z,101489.56
2022-11-29T16:16:12.340Z,101486.59
2022-11-29T16:18:52.240Z,101489.28
2022-11-29T16:21:24.688Z,101494.63
2022-11-29T16:24:05.700Z,101510.13
2022-11-29T16:27:06.384Z,101502.22
2022-11-29T16:32:36.830Z,101509.13
2022-11-29T16:35:07.253Z,101514.44
2022-11-29T16:37:41.630Z,101510.28
2022-11-29T16:40:23.541Z,101512.75
2022-11-29T16:43:12.289Z,101508.22
2022-11-29T16:48:58.172Z,101520.63
2022-11-29T16:51:32.710Z,101518.06
2022-11-29T16:54:25.211Z,101515.16
2022-11-29T16:56:55.742Z,101519.50
2022-11-29T16:59:28.230Z,101521.41
2022-11-29T17:02:09.618Z,101515.41
2022-11-29T17:04:36.695Z,101520.34
2022-11-29T17:07:08.626Z,101523.63
2022-11-29T17:09:43.610Z,101523.84
2022-11-29T17:12:14.356Z,101526.06
2022-11-29T17:14:48.754Z,101530.59
2022-11-29T17:17:21.639Z,101530.75
2022-11-29T17:19:48.336Z,101527.44
2022-11-29T17:22:26.680Z,101532.66
2022-11-29T17:24:53.621Z,101539.13
2022-11-29T17:27:28.727Z,101535.94
2022-11-29T17:29:55.472Z,101533.19
2022-11-29T17:32:26.688Z,101524.03
2022-11-29T17:34:54.176Z,101531.69
2022-11-29T17:37:29.442Z,101542.94
2022-11-29T17:39:58.384Z,101535.72
2022-11-29T17:42:24.976Z,101532.25
2022-11-29T17:44:53.789Z,101540.19
2022-11-29T17:47:24.009Z,101533.75
2022-11-29T17:49:50.454Z,101542.59
2022-11-29T17:52:20.983Z,101548.88
2022-11-29T17:54:50.848Z,101542.25
2022-11-29T17:57:50.734Z,101545.50
2022-11-29T18:00:25.450Z,101556.38
2022-11-29T18:02:59.611Z,101551.34
2022-11-29T18:05:34.794Z,101553.16
2022-11-29T18:08:06.417Z,101557.41
2022-11-29T18:10:33.146Z,101558.31
2022-11-29T18:13:05.005Z,101554.94
2022-11-29T18:15:37.713Z,101562.81
2022-11-29T18:18:10.029Z,101560.91
2022-11-29T18:20:37.086Z,101565.84
2022-11-29T18:23:19.475Z,101566.72
2022-11-29T18:25:54.696Z,101568.63
2022-11-29T18:34:11.437Z,101570.09
2022-11-29T18:36:54.382Z,101569.63
2022-11-29T18:39:29.504Z,101571.25
2022-11-29T18:42:08.500Z,101571.31
2022-11-29T18:44:36.005Z,101571.09
2022-11-29T18:47:03.970Z,101578.84
2022-11-29T18:49:30.408Z,101580.66
2022-11-29T18:51:56.872Z,101573.84
2022-11-29T18:54:23.350Z,101585.97
2022-11-29T18:56:50.742Z,101577.31
2022-11-29T18:59:17.727Z,101580.84
2022-11-29T19:01:45.440Z,101579.84
2022-11-29T19:04:13.408Z,101579.59
2022-11-29T19:06:40.459Z,101585.63
2022-11-29T19:09:07.884Z,101589.16
2022-11-29T19:11:34.980Z,101584.88
2022-11-29T19:14:04.909Z,101580.16
2022-11-29T19:16:32.800Z,101585.25
2022-11-29T19:19:00.034Z,101590.78
2022-11-29T19:21:27.625Z,101586.50
2022-11-29T19:23:55.453Z,101581.66
2022-11-29T19:26:22.892Z,101587.63
2022-11-29T19:28:49.634Z,101583.97
2022-11-29T19:31:17.695Z,101583.72
2022-11-29T19:33:44.893Z,101587.13
2022-11-29T19:36:16.268Z,101588.66
2022-11-29T19:38:43.422Z,101591.50
2022-11-29T19:41:11.106Z,101590.63
2022-11-29T19:43:37.568Z,101589.59
2022-11-29T19:46:14.464Z,101596.38
2022-11-29T19:48:41.268Z,101597.59
2022-11-29T19:51:08.092Z,101592.75
2022-11-29T19:53:35.208Z,101595.38
2022-11-29T19:56:09.365Z,101595.56
2022-11-29T19:58:35.866Z,101595.81
2022-11-29T20:01:05.202Z,101592.22
2022-11-29T20:03:31.800Z,101598.97
2022-11-29T20:05:58.282Z,101600.09
2022-11-29T20:08:24.771Z,101599.47
2022-11-29T20:10:52.017Z,101605.84
2022-11-29T20:13:18.609Z,101608.53
2022-11-29T20:15:45.144Z,101610.16
2022-11-29T20:18:11.653Z,101608.50
2022-11-29T20:20:38.413Z,101610.81
2022-11-29T20:23:04.876Z,101607.41
2022-11-29T20:25:31.613Z,101607.00
2022-11-29T20:27:58.540Z,101607.84
2022-11-29T20:30:25.893Z,101614.53
2022-11-29T20:32:52.394Z,101611.22
2022-11-29T20:35:19.185Z,101610.94
2022-11-29T20:38:04.218Z,101611.34
2022-11-29T20:41:03.392Z,101610.94
2022-11-29T20:43:37.888Z,101614.50
2022-11-29T20:46:04.554Z,101612.00
2022-11-29T20:48:31.178Z,101615.25
2022-11-29T20:50:59.754Z,101626.97
2022-11-29T20:53:34.561Z,101626.94
2022-11-29T20:56:01.087Z,101620.94
2022-11-29T20:58:27.800Z,101631.50
2022-11-29T21:00:54.879Z,101627.50
2022-11-29T21:03:22.256Z,101631.88
2022-11-29T21:05:48.753Z,101640.63
2022-11-29T21:08:16.064Z,101629.34
2022-11-29T21:10:42.646Z,101638.91
2022-11-29T21:13:10.581Z,101633.38
2022-11-29T21:15:37.201Z,101633.97
2022-11-29T21:18:03.860Z,101635.25
2022-11-29T21:20:30.470Z,101633.56
2022-11-29T21:23:23.216Z,101635.66
2022-11-29T21:25:49.606Z,101638.84
2022-11-29T21:28:16.839Z,101641.44
2022-11-29T21:30:43.668Z,101642.44
2022-11-29T21:33:10.603Z,101638.91
2022-11-29T21:35:39.762Z,101647.91
2022-11-29T21:38:06.806Z,101651.81
2022-11-29T21:40:35.192Z,101651.88
2022-11-29T21:43:01.646Z,101652.56
2022-11-29T21:45:28.100Z,101653.22
2022-11-29T21:47:54.831Z,101652.28
2022-11-29T21:50:21.342Z,101646.19
2022-11-29T21:52:50.755Z,101653.16
2022-11-29T21:55:17.237Z,101654.13
2022-11-29T21:57:43.697Z,101652.75
2022-11-29T22:00:10.355Z,101652.59
2022-11-29T22:02:36.896Z,101654.66
2022-11-29T22:05:03.482Z,101653.47
2022-11-29T22:07:30.003Z,101652.81
2022-11-29T22:09:56.498Z,101654.78
2022-11-29T22:12:38.014Z,101658.06
2022-11-29T22:15:04.799Z,101658.63
2022-11-29T22:17:31.207Z,101659.72
2022-11-29T22:19:57.664Z,101662.31
2022-11-29T22:22:27.155Z,101661.44
2022-11-29T22:24:54.576Z,101659.81
2022-11-29T22:27:21.026Z,101663.09
2022-11-29T22:29:47.462Z,101661.47
2022-11-29T22:32:13.973Z,101656.34
2022-11-29T22:34:40.499Z,101662.47
2022-11-29T22:37:06.933Z,101669.06
2022-11-29T22:39:33.421Z,101666.38
2022-11-29T22:41:59.851Z,101665.72
2022-11-29T22:44:26.379Z,101667.50
2022-11-29T22:46:52.988Z,101670.19
2022-11-29T22:49:19.480Z,101672.28
2022-11-29T22:51:46.029Z,101672.66
2022-11-29T22:54:15.414Z,101674.31
2022-11-29T22:56:42.811Z,101678.66
2022-11-29T22:59:09.277Z,101677.69
2022-11-29T23:01:37.207Z,101672.56
2022-11-29T23:04:05.315Z,101673.41
2022-11-29T23:06:33.016Z,101675.41
2022-11-29T23:09:03.139Z,101677.72
2022-11-29T23:11:30.435Z,101680.97
2022-11-29T23:13:57.073Z,101676.69
2022-11-29T23:16:25.471Z,101670.97
2022-11-29T23:18:52.314Z,101674.09
2022-11-29T23:21:29.028Z,101679.75
2022-11-29T23:23:56.901Z,101675.13
2022-11-29T23:26:29.605Z,101675.13
2022-11-29T23:28:56.344Z,101679.41
2022-11-29T23:31:23.580Z,101681.44
2022-11-29T23:33:50.261Z,101673.91
2022-11-29T23:36:17.377Z,101673.78
2022-11-29T23:38:44.122Z,101665.00
2022-11-29T23:41:11.668Z,101671.13
2022-11-29T23:43:38.894Z,101672.53
2022-11-29T23:46:06.483Z,101670.22
2022-11-29T23:48:32.955Z,101678.34
2022-11-29T23:50:59.453Z,101671.88
2022-11-29T23:53:25.925Z,101677.63
2022-11-29T23:55:59.563Z,101673.25
2022-11-29T23:58:26.391Z,101674.03
